Time;durP1;ratioP1;P1;durP2;ratioP2;P2;SDS_P1;SDS_P2;PMS_P1;PMS_P2;Temp;Humidity;BMP_temperature;BMP_pressure;BME280_temperature;BME280_humidity;BME280_pressure;Samples;Min_cycle;Max_cycle;Signal;HPM_P1;HPM_P2
2024/03/17 00:02:25;;;;;;;48.60;28.60;;;;;;;6.15;88.04;99962.52;105871;1255;72757;-74
2024/03/17 00:04:52;;;;;;;47.70;31.30;;;;;;;6.22;87.75;99964.36;105905;1254;60450;-74
2024/03/17 00:07:19;;;;;;;49.30;31.10;;;;;;;6.20;87.52;99967.17;105914;1252;60425;-73
2024/03/17 00:09:46;;;;;;;48.00;30.40;;;;;;;6.13;87.77;99961.60;105810;1257;74286;-75
2024/03/17 00:12:13;;;;;;;45.30;30.40;;;;;;;6.10;87.77;99964.87;105802;1254;70776;-74
2024/03/17 00:14:42;;;;;;;51.30;31.00;;;;;;;6.13;87.95;99963.72;106518;1254;72996;-73
2024/03/17 00:17:09;;;;;;;47.50;31.10;;;;;;;6.15;87.67;99957.03;107707;1254;60418;-72
2024/03/17 00:19:36;;;;;;;56.70;32.50;;;;;;;6.11;87.91;99957.38;107452;1253;60443;-73
2024/03/17 00:22:03;;;;;;;53.30;31.80;;;;;;;6.07;88.01;99953.83;107968;1252;72880;-72
2024/03/17 00:24:34;;;;;;;48.80;33.30;;;;;;;6.08;88.30;99950.58;107584;1257;70718;-72
2024/03/17 00:27:01;;;;;;;43.80;29.60;;;;;;;6.17;87.99;99950.01;107942;1255;72137;-75
2024/03/17 00:29:29;;;;;;;47.50;31.80;;;;;;;6.20;87.81;99944.83;108130;1254;60510;-73
2024/03/17 00:31:56;;;;;;;50.00;32.80;;;;;;;6.18;87.79;99942.77;108157;1254;60283;-75
2024/03/17 00:34:23;;;;;;;47.60;30.70;;;;;;;6.17;87.81;99940.18;108449;1256;72348;-73
2024/03/17 00:36:51;;;;;;;48.20;32.00;;;;;;;6.23;87.58;99944.89;107485;1254;69265;-73
2024/03/17 00:39:19;;;;;;;46.70;31.30;;;;;;;6.21;87.56;99941.03;107637;1257;71978;-71
2024/03/17 00:41:46;;;;;;;52.10;32.80;;;;;;;6.17;87.91;99934.16;107493;1254;60335;-73
2024/03/17 00:44:13;;;;;;;49.50;31.50;;;;;;;6.15;87.91;99933.34;107922;1253;60443;-72
2024/03/17 00:46:42;;;;;;;43.80;29.40;;;;;;;6.20;87.62;99932.19;107917;1254;74722;-73
2024/03/17 00:49:10;;;;;;;49.90;32.20;;;;;;;6.21;87.56;99930.83;107883;1254;69372;-72
2024/03/17 00:51:37;;;;;;;47.80;31.30;;;;;;;6.17;87.70;99923.95;107808;1257;71808;-71
2024/03/17 00:54:04;;;;;;;46.60;31.80;;;;;;;6.12;87.78;99926.48;107599;1254;60663;-72
2024/03/17 00:56:30;;;;;;;45.40;30.20;;;;;;;6.16;87.74;99923.71;107654;1254;60395;-74
2024/03/17 00:58:58;;;;;;;48.90;31.60;;;;;;;6.22;87.83;99918.48;108219;1254;73342;-75
2024/03/17 01:01:25;;;;;;;50.70;33.20;;;;;;;6.20;87.67;99921.27;109158;1254;69527;-72
2024/03/17 01:03:52;;;;;;;49.00;32.40;;;;;;;6.15;87.75;99917.18;109296;1253;71825;-72
2024/03/17 01:06:19;;;;;;;51.10;30.00;;;;;;;6.15;87.92;99910.08;108879;1253;62071;-74
2024/03/17 01:08:46;;;;;;;45.60;30.30;;;;;;;6.21;87.57;99911.99;109326;1253;60111;-74
2024/03/17 01:11:18;;;;;;;45.50;32.20;;;;;;;6.22;87.56;99903.50;109213;1254;72740;-73
2024/03/17 01:13:46;;;;;;;48.00;31.10;;;;;;;6.20;87.61;99905.41;108729;1253;69519;-72
2024/03/17 01:16:13;;;;;;;42.20;30.20;;;;;;;6.24;87.35;99906.70;108088;1254;71230;-72
2024/03/17 01:18:40;;;;;;;46.70;31.60;;;;;;;6.27;87.24;99904.61;107626;1254;60428;-72
2024/03/17 01:21:08;;;;;;;45.80;31.20;;;;;;;6.24;87.35;99903.68;107830;1254;60536;-72
2024/03/17 01:23:34;;;;;;;43.20;31.00;;;;;;;6.19;87.52;99900.98;107880;1254;73295;-72
2024/03/17 01:26:01;;;;;;;44.60;31.10;;;;;;;6.17;87.48;99902.48;108245;1254;69534;-74
2024/03/17 01:28:28;;;;;;;42.90;29.80;;;;;;;6.22;87.31;99900.18;108611;1254;72686;-72
2024/03/17 01:30:55;;;;;;;45.40;30.60;;;;;;;6.25;87.32;99898.88;109090;1253;58864;-72
2024/03/17 01:33:23;;;;;;;47.70;31.90;;;;;;;6.21;87.33;99895.81;108959;1252;60620;-74
2024/03/17 01:35:53;;;;;;;43.60;29.30;;;;;;;6.19;87.29;99897.05;108654;1254;72424;-74
2024/03/17 01:38:20;;;;;;;48.80;30.90;;;;;;;6.23;87.24;99895.31;108939;1254;70391;-74
2024/03/17 01:40:47;;;;;;;44.80;29.20;;;;;;;6.28;87.15;99893.30;107885;1254;71939;-76
2024/03/17 01:43:13;;;;;;;45.80;32.30;;;;;;;6.24;86.94;99890.80;107302;1254;60783;-74
2024/03/17 01:45:40;;;;;;;45.20;31.00;;;;;;;6.19;87.41;99889.17;109135;1254;60456;-73
2024/03/17 01:48:12;;;;;;;47.70;31.40;;;;;;;6.17;87.39;99892.16;107458;1256;72341;-73
2024/03/17 01:50:38;;;;;;;46.00;29.10;;;;;;;6.21;87.19;99885.46;107818;1253;68819;-73
2024/03/17 01:53:06;;;;;;;41.90;30.30;;;;;;;6.24;86.99;99888.91;107279;1254;71157;-72
2024/03/17 01:55:33;;;;;;;44.60;30.80;;;;;;;6.22;87.16;99887.84;106141;1254;60530;-72
2024/03/17 01:58:02;;;;;;;47.10;31.90;;;;;;;6.17;87.19;99884.95;106081;1254;60471;-72
2024/03/17 02:00:31;;;;;;;42.70;30.30;;;;;;;6.12;87.35;99885.71;105812;1254;74119;-73
2024/03/17 02:02:57;;;;;;;43.90;27.80;;;;;;;6.15;87.53;99878.83;105937;1254;70776;-74
2024/03/17 02:05:24;;;;;;;44.30;29.60;;;;;;;6.18;87.18;99880.31;105782;1253;73429;-73
2024/03/17 02:07:51;;;;;;;43.10;30.90;;;;;;;6.15;87.38;99880.89;105844;1253;60485;-73
2024/03/17 02:10:18;;;;;;;42.00;29.30;;;;;;;6.09;87.46;99877.02;105839;1253;60354;-73
2024/03/17 02:12:44;;;;;;;39.40;28.30;;;;;;;6.05;87.57;99878.10;105901;1256;74410;-72
2024/03/17 02:15:11;;;;;;;42.60;28.80;;;;;;;6.08;87.61;99874.30;106257;1254;69411;-74
2024/03/17 02:17:38;;;;;;;43.00;27.90;;;;;;;6.12;87.53;99872.54;105737;1253;71934;-73
2024/03/17 02:20:11;;;;;;;42.30;28.80;;;;;;;6.09;87.52;99869.45;105729;1254;60641;-73
2024/03/17 02:22:37;;;;;;;42.00;29.50;;;;;;;6.04;87.63;99869.38;105996;1259;60948;-73
2024/03/17 02:25:07;;;;;;;41.10;27.70;;;;;;;6.02;87.67;99866.55;105870;1254;74026;-74
2024/03/17 02:27:37;;;;;;;39.90;27.20;;;;;;;6.08;87.76;99862.48;105988;1254;69740;-73
2024/03/17 02:30:09;;;;;;;43.10;28.50;;;;;;;6.11;87.58;99865.59;105785;1254;73558;-72
2024/03/17 02:32:36;;;;;;;45.30;30.10;;;;;;;6.07;87.50;99864.36;105826;1253;60429;-73
2024/03/17 02:35:05;;;;;;;39.80;27.50;;;;;;;6.03;87.64;99865.08;105735;1254;60510;-74
2024/03/17 02:37:32;;;;;;;42.90;28.40;;;;;;;6.03;87.76;99862.23;105830;1257;74021;-74
2024/03/17 02:39:59;;;;;;;42.70;27.20;;;;;;;6.11;87.68;99863.52;105871;1254;70707;-73
2024/03/17 02:42:26;;;;;;;37.80;27.20;;;;;;;6.10;87.68;99861.31;105779;1253;71241;-74
2024/03/17 02:44:52;;;;;;;41.20;28.20;;;;;;;6.05;87.63;99858.55;105627;1254;60427;-74
2024/03/17 02:47:20;;;;;;;37.40;26.50;;;;;;;6.02;87.81;99858.63;105666;1254;60447;-74
2024/03/17 02:49:50;;;;;;;38.00;26.80;;;;;;;6.08;87.77;99858.15;107547;1256;74521;-75
2024/03/17 02:52:17;;;;;;;40.20;28.10;;;;;;;6.11;87.62;99859.61;106232;1254;70190;-74
2024/03/17 02:54:44;;;;;;;41.60;27.80;;;;;;;6.07;87.80;99856.99;106107;1254;72384;-75
2024/03/17 02:57:24;;;;;;;40.70;26.40;;;;;;;6.04;87.88;99853.32;105730;1254;61850;-74
2024/03/17 02:59:51;;;;;;;34.80;23.90;;;;;;;6.10;87.81;99851.95;106066;1254;61256;-74
2024/03/17 03:02:18;;;;;;;40.10;27.50;;;;;;;6.10;87.60;99845.61;106079;1256;75303;-75
2024/03/17 03:04:45;;;;;;;40.00;28.10;;;;;;;6.06;87.77;99844.95;106045;1254;70801;-73
2024/03/17 03:07:12;;;;;;;40.40;25.60;;;;;;;6.03;87.77;99843.11;106470;1254;73292;-72
2024/03/17 03:09:39;;;;;;;36.60;24.90;;;;;;;6.07;88.00;99843.96;106288;1254;62086;-72
2024/03/17 03:12:07;;;;;;;38.30;26.20;;;;;;;6.12;87.70;99841.08;106072;1253;61222;-73
2024/03/17 03:14:34;;;;;;;39.60;28.10;;;;;;;6.10;87.64;99843.38;105923;1254;75186;-74
2024/03/17 03:17:01;;;;;;;40.70;26.60;;;;;;;6.04;87.91;99840.16;105680;1254;71295;-72
2024/03/17 03:19:28;;;;;;;37.30;25.70;;;;;;;6.02;87.98;99839.31;105710;1254;73090;-75
2024/03/17 03:21:54;;;;;;;39.60;25.50;;;;;;;6.05;87.93;99840.41;105760;1254;61281;-73
2024/03/17 03:24:21;;;;;;;34.80;24.50;;;;;;;6.09;87.97;99839.77;105881;1252;61182;-74
2024/03/17 03:26:48;;;;;;;44.90;27.60;;;;;;;6.05;87.96;99837.12;105762;1254;75012;-74
2024/03/17 03:29:15;;;;;;;44.10;25.20;;;;;;;6.00;88.13;99836.27;105759;1254;70797;-72
2024/03/17 03:31:42;;;;;;;35.40;24.40;;;;;;;6.03;88.18;99835.70;105684;1253;61303;-73
2024/03/17 03:34:08;;;;;;;37.70;25.60;;;;;;;6.07;88.24;99834.66;105518;1254;61278;-73
2024/03/17 03:36:36;;;;;;;34.10;23.90;;;;;;;6.05;88.10;99829.50;105648;1254;61466;-72
2024/03/17 03:39:06;;;;;;;38.60;26.60;;;;;;;6.00;88.40;99831.73;105646;1254;74870;-73
2024/03/17 03:41:33;;;;;;;36.10;24.60;;;;;;;5.99;88.34;99826.73;105705;1254;70504;-73
2024/03/17 03:44:00;;;;;;;32.80;24.20;;;;;;;6.03;88.37;99831.45;105601;1259;73528;-74
2024/03/17 03:46:26;;;;;;;35.60;25.80;;;;;;;6.02;88.51;99822.98;105645;1254;61223;-73
2024/03/17 03:48:53;;;;;;;41.10;27.40;;;;;;;5.97;88.60;99819.36;105764;1256;61164;-73
2024/03/17 03:51:20;;;;;;;37.70;25.10;;;;;;;5.94;88.83;99825.80;105664;1254;74945;-74
2024/03/17 03:53:47;;;;;;;31.70;23.00;;;;;;;5.96;88.82;99822.75;105611;1254;70122;-75
2024/03/17 03:56:15;;;;;;;34.00;24.30;;;;;;;6.02;88.54;99819.77;106006;1256;73256;-76
2024/03/17 03:58:42;;;;;;;36.00;24.90;;;;;;;6.03;88.58;99826.92;106115;1253;61452;-72
2024/03/17 04:01:11;;;;;;;36.20;24.20;;;;;;;6.00;88.63;99823.51;106979;1256;61244;-72
2024/03/17 04:03:38;;;;;;;37.20;26.90;;;;;;;5.97;88.62;99824.80;106591;1252;75314;-72
2024/03/17 04:06:06;;;;;;;33.20;22.70;;;;;;;6.01;88.51;99825.67;105883;1254;70574;-72
2024/03/17 04:08:33;;;;;;;33.70;23.70;;;;;;;6.04;88.38;99821.67;105795;1253;72685;-76
2024/03/17 04:11:01;;;;;;;37.70;24.80;;;;;;;6.00;88.54;99825.42;105743;1254;61297;-73
2024/03/17 04:13:33;;;;;;;37.80;26.20;;;;;;;5.91;88.70;99820.55;105798;1253;61291;-74
2024/03/17 04:16:01;;;;;;;35.50;24.00;;;;;;;5.84;89.18;99824.14;105906;1254;74659;-73
2024/03/17 04:18:30;;;;;;;35.60;24.50;;;;;;;5.85;88.92;99824.62;105780;1253;70025;-72
2024/03/17 04:21:01;;;;;;;33.40;24.00;;;;;;;5.84;89.27;99822.81;105741;1254;73029;-73
2024/03/17 04:23:27;;;;;;;38.40;25.70;;;;;;;5.77;89.51;99819.70;105703;1254;61359;-75
2024/03/17 04:25:55;;;;;;;43.30;26.20;;;;;;;5.71;89.99;99821.45;105987;1257;61116;-73
2024/03/17 04:28:21;;;;;;;30.50;22.60;;;;;;;5.74;89.72;99822.41;105810;1257;73204;-72
2024/03/17 04:30:48;;;;;;;34.30;24.30;;;;;;;5.79;89.72;99820.72;105802;1257;70912;-73
2024/03/17 04:33:16;;;;;;;36.10;25.20;;;;;;;5.77;89.70;99822.66;105750;1256;72092;-74
2024/03/17 04:35:43;;;;;;;35.50;25.10;;;;;;;5.72;90.17;99819.42;106020;1252;61332;-74
2024/03/17 04:38:10;;;;;;;33.20;24.40;;;;;;;5.66;89.98;99813.57;105774;1254;61467;-72
2024/03/17 04:40:41;;;;;;;36.90;23.90;;;;;;;5.68;90.01;99811.61;105727;1256;73876;-74
2024/03/17 04:43:08;;;;;;;33.30;25.40;;;;;;;5.68;89.97;99814.12;105812;1254;70988;-73
2024/03/17 04:45:35;;;;;;;36.90;25.80;;;;;;;5.62;90.41;99815.94;105908;1252;72671;-72
2024/03/17 04:48:02;;;;;;;35.20;23.70;;;;;;;5.56;90.73;99809.42;105600;1254;61755;-73
2024/03/17 04:50:31;;;;;;;34.10;24.80;;;;;;;5.57;90.72;99808.07;105898;1256;61221;-74
2024/03/17 04:52:59;;;;;;;30.00;23.10;;;;;;;5.60;90.68;99806.59;106505;1254;73276;-76
2024/03/17 04:55:26;;;;;;;33.10;23.70;;;;;;;5.60;90.72;99805.94;106705;1254;71196;-74
2024/03/17 04:57:53;;;;;;;35.80;23.80;;;;;;;5.57;90.98;99806.38;106035;1254;73083;-73
2024/03/17 05:00:21;;;;;;;34.10;23.30;;;;;;;5.55;91.11;99803.55;105786;1254;61616;-74
2024/03/17 05:02:48;;;;;;;33.40;23.90;;;;;;;5.60;90.85;99804.64;105885;1256;61198;-74
2024/03/17 05:05:14;;;;;;;35.40;23.90;;;;;;;5.65;90.70;99799.88;105769;1257;74885;-74
2024/03/17 05:07:41;;;;;;;36.60;25.20;;;;;;;5.63;90.82;99800.01;105962;1254;69400;-74
2024/03/17 05:10:08;;;;;;;33.60;24.70;;;;;;;5.61;91.20;99797.77;105933;1253;72821;-73
2024/03/17 05:12:35;;;;;;;31.30;21.60;;;;;;;5.65;90.75;99798.63;105751;1254;61329;-73
2024/03/17 05:15:03;;;;;;;32.90;23.20;;;;;;;5.73;90.44;99799.14;105863;1256;61403;-74
2024/03/17 05:17:31;;;;;;;31.90;23.80;;;;;;;5.75;90.38;99799.70;105755;1254;74884;-75
2024/03/17 05:19:58;;;;;;;33.70;23.90;;;;;;;5.72;90.64;99796.59;105622;1254;70665;-73
2024/03/17 05:22:24;;;;;;;33.30;22.40;;;;;;;5.73;90.90;99797.20;105843;1254;73092;-75
2024/03/17 05:24:51;;;;;;;34.50;23.30;;;;;;;5.79;90.50;99792.11;105484;1254;61862;-75
2024/03/17 05:27:18;;;;;;;29.80;21.80;;;;;;;5.87;90.48;99795.45;105811;1256;61227;-75
2024/03/17 05:29:44;;;;;;;31.50;22.30;;;;;;;5.88;90.26;99788.98;105655;1253;73488;-74
2024/03/17 05:32:11;;;;;;;33.50;21.80;;;;;;;5.88;89.96;99794.13;105761;1253;71051;-73
2024/03/17 05:34:38;;;;;;;33.20;22.40;;;;;;;5.90;90.17;99798.52;105611;1254;71087;-75
2024/03/17 05:37:05;;;;;;;30.10;22.20;;;;;;;5.96;89.87;99799.19;105790;1253;61981;-74
2024/03/17 05:39:35;;;;;;;29.80;21.00;;;;;;;6.02;89.51;99796.58;105993;1253;61358;-74
2024/03/17 05:42:03;;;;;;;33.50;22.90;;;;;;;6.00;89.49;99799.77;105660;1257;61155;-74
2024/03/17 05:44:39;;;;;;;29.70;21.00;;;;;;;5.96;89.56;99793.05;106079;1254;69309;-73
2024/03/17 05:47:09;;;;;;;30.70;21.80;;;;;;;6.02;89.30;99791.61;106273;1254;72455;-74
2024/03/17 05:49:36;;;;;;;29.70;21.50;;;;;;;6.09;89.18;99784.35;105952;1255;61356;-73
2024/03/17 05:52:03;;;;;;;32.20;22.90;;;;;;;6.11;89.47;99784.69;105750;1254;61250;-74
2024/03/17 05:54:30;;;;;;;31.00;20.90;;;;;;;6.15;89.23;99785.63;106182;1253;74984;-73
2024/03/17 05:56:57;;;;;;;28.60;21.70;;;;;;;6.22;88.93;99787.38;105831;1257;70825;-72
2024/03/17 05:59:24;;;;;;;28.30;21.60;;;;;;;6.33;88.38;99782.04;106172;1256;72883;-73
2024/03/17 06:01:50;;;;;;;30.50;22.20;;;;;;;6.37;88.03;99782.56;106122;1252;61209;-73
2024/03/17 06:04:17;;;;;;;33.50;24.70;;;;;;;6.36;88.02;99790.08;106757;1254;61262;-74
2024/03/17 06:06:44;;;;;;;34.30;24.50;;;;;;;6.34;87.96;99790.41;105885;1254;74686;-75
2024/03/17 06:09:11;;;;;;;35.40;25.20;;;;;;;6.37;87.75;99792.21;106257;1254;71015;-73
2024/03/17 06:11:37;;;;;;;32.90;23.10;;;;;;;6.42;87.68;99789.80;105948;1256;72688;-73
2024/03/17 06:14:09;;;;;;;32.60;24.10;;;;;;;6.42;87.76;99787.73;105991;1252;61244;-72
2024/03/17 06:16:36;;;;;;;35.40;26.80;;;;;;;6.40;87.72;99796.50;105931;1257;61417;-72
2024/03/17 06:19:03;;;;;;;36.40;25.50;;;;;;;6.37;87.52;99799.30;105773;1254;74942;-76
2024/03/17 06:21:30;;;;;;;37.30;26.50;;;;;;;6.34;87.55;99798.61;105650;1254;69418;-75
2024/03/17 06:23:57;;;;;;;37.40;26.80;;;;;;;6.32;87.42;99797.06;105646;1256;71261;-74
2024/03/17 06:26:24;;;;;;;44.10;28.00;;;;;;;6.23;87.78;99798.60;105855;1253;61301;-74
2024/03/17 06:28:50;;;;;;;35.70;26.10;;;;;;;6.15;88.10;99793.90;105874;1256;61254;-74
2024/03/17 06:31:17;;;;;;;36.80;26.20;;;;;;;6.17;88.40;99794.58;105949;1254;74526;-73
2024/03/17 06:33:44;;;;;;;34.30;25.40;;;;;;;6.19;88.53;99790.35;106009;1257;68916;-74
2024/03/17 06:36:11;;;;;;;38.20;27.40;;;;;;;6.18;88.57;99790.57;106030;1253;72451;-74
2024/03/17 06:38:38;;;;;;;34.90;25.60;;;;;;;6.16;88.79;99794.30;106147;1254;61235;-75
2024/03/17 06:41:06;;;;;;;32.90;23.70;;;;;;;6.18;88.41;99800.24;106361;1254;61310;-75
2024/03/17 06:43:34;;;;;;;38.70;26.00;;;;;;;6.20;88.14;99803.56;106487;1253;73479;-74
2024/03/17 06:46:01;;;;;;;34.40;25.30;;;;;;;6.10;88.18;99806.08;106038;1252;70297;-73
2024/03/17 06:48:28;;;;;;;36.00;25.50;;;;;;;5.95;88.64;99806.15;105978;1253;71811;-74
2024/03/17 06:50:55;;;;;;;30.50;20.90;;;;;;;5.89;88.94;99809.52;105866;1254;61755;-72
2024/03/17 06:53:23;;;;;;;30.20;21.80;;;;;;;5.86;89.02;99814.35;105756;1254;61227;-73
2024/03/17 06:55:56;;;;;;;27.40;20.40;;;;;;;5.75;89.18;99806.89;106044;1254;74848;-73
2024/03/17 06:58:24;;;;;;;28.60;19.70;;;;;;;5.62;89.62;99812.24;105940;1256;70299;-72
2024/03/17 07:00:59;;;;;;;26.70;18.70;;;;;;;5.50;90.05;99813.77;105906;1254;73034;-73
2024/03/17 07:03:27;;;;;;;22.90;17.60;;;;;;;5.47;89.94;99812.50;106143;1256;61957;-73
2024/03/17 07:05:54;;;;;;;24.90;17.70;;;;;;;5.43;90.74;99820.05;105924;1254;61856;-72
2024/03/17 07:08:21;;;;;;;22.20;16.40;;;;;;;5.29;91.34;99811.19;106061;1253;74636;-76
2024/03/17 07:10:56;;;;;;;26.00;17.40;;;;;;;5.20;91.70;99818.32;106086;1254;70353;-73
2024/03/17 07:13:23;;;;;;;19.60;14.60;;;;;;;5.15;91.84;99822.95;106116;1256;71097;-74
2024/03/17 07:15:50;;;;;;;23.00;16.80;;;;;;;5.08;92.65;99827.08;105778;1256;61222;-74
2024/03/17 07:18:17;;;;;;;25.90;18.70;;;;;;;4.94;93.52;99819.09;105756;1256;61228;-71
2024/03/17 07:20:46;;;;;;;24.50;16.30;;;;;;;4.87;94.17;99809.29;105862;1256;75395;-72
2024/03/17 07:23:15;;;;;;;23.00;17.00;;;;;;;4.89;94.71;99811.46;106118;1254;70788;-72
2024/03/17 07:25:42;;;;;;;23.90;17.80;;;;;;;4.96;94.92;99805.61;106179;1254;72462;-72
2024/03/17 07:28:11;;;;;;;26.40;18.00;;;;;;;5.01;95.13;99803.11;106036;1254;61253;-75
2024/03/17 07:30:37;;;;;;;24.80;17.70;;;;;;;5.04;95.12;99807.08;106108;1254;61205;-74
2024/03/17 07:33:04;;;;;;;23.20;17.30;;;;;;;5.14;95.01;99806.90;106215;1259;73210;-72
2024/03/17 07:35:31;;;;;;;22.90;16.80;;;;;;;5.27;94.60;99801.56;106865;1256;70586;-75
2024/03/17 07:37:58;;;;;;;24.30;18.30;;;;;;;5.37;94.19;99801.55;106816;1254;71405;-74
2024/03/17 07:40:24;;;;;;;23.80;17.20;;;;;;;5.39;93.76;99797.24;106226;1252;61320;-74
2024/03/17 07:42:53;;;;;;;23.50;17.20;;;;;;;5.39;93.82;99799.13;106124;1257;61273;-75
2024/03/17 07:45:19;;;;;;;25.60;18.20;;;;;;;5.46;93.73;99798.16;106003;1254;74471;-75
2024/03/17 07:47:46;;;;;;;25.80;18.40;;;;;;;5.53;93.49;99794.77;106133;1253;70098;-75
2024/03/17 07:50:13;;;;;;;27.40;19.50;;;;;;;5.56;93.66;99789.20;106102;1254;71153;-74
2024/03/17 07:52:41;;;;;;;26.00;18.70;;;;;;;5.60;93.21;99789.02;106339;1254;61238;-75
2024/03/17 07:55:09;;;;;;;24.40;17.50;;;;;;;5.66;92.67;99783.18;106171;1254;61299;-75
2024/03/17 07:57:36;;;;;;;26.00;19.60;;;;;;;5.74;92.80;99784.30;106739;1254;73288;-72
2024/03/17 08:00:10;;;;;;;25.20;17.40;;;;;;;5.79;92.35;99786.34;106151;1254;69546;-73
2024/03/17 08:02:45;;;;;;;24.20;17.10;;;;;;;5.79;92.06;99781.93;106048;1254;72679;-74
2024/03/17 08:05:12;;;;;;;26.60;19.20;;;;;;;5.83;91.73;99793.38;105948;1254;61664;-74
2024/03/17 08:07:39;;;;;;;24.20;18.60;;;;;;;5.83;91.47;99783.11;105964;1253;61225;-72
2024/03/17 08:10:06;;;;;;;25.50;18.80;;;;;;;5.84;91.52;99779.69;105758;1256;73554;-72
2024/03/17 08:12:33;;;;;;;27.70;19.70;;;;;;;5.85;91.69;99776.61;106056;1254;71012;-72
2024/03/17 08:15:01;;;;;;;28.30;19.10;;;;;;;5.89;91.92;99772.98;105913;1256;72663;-72
2024/03/17 08:17:28;;;;;;;25.10;17.40;;;;;;;6.00;91.62;99766.32;105582;1254;61355;-70
2024/03/17 08:19:54;;;;;;;25.10;18.70;;;;;;;6.14;91.19;99770.91;105685;1254;61225;-72
2024/03/17 08:22:21;;;;;;;27.60;20.90;;;;;;;6.18;90.65;99768.27;105801;1256;74989;-73
2024/03/17 08:24:49;;;;;;;27.30;19.30;;;;;;;6.19;90.53;99767.99;106003;1254;69465;-72
2024/03/17 08:27:16;;;;;;;29.50;20.50;;;;;;;6.23;90.21;99775.41;106089;1253;71650;-72
2024/03/17 08:29:43;;;;;;;30.00;19.50;;;;;;;6.24;89.88;99772.41;106440;1253;61770;-71
2024/03/17 08:32:10;;;;;;;26.10;18.90;;;;;;;6.24;89.94;99773.69;106373;1252;61399;-74
2024/03/17 08:34:37;;;;;;;26.70;19.70;;;;;;;6.26;89.80;99775.98;106366;1254;74593;-73
2024/03/17 08:37:04;;;;;;;26.10;18.20;;;;;;;6.23;89.78;99785.72;106040;1253;69571;-73
2024/03/17 08:39:31;;;;;;;30.20;20.30;;;;;;;6.17;89.72;99783.98;105893;1253;72644;-74
2024/03/17 08:41:58;;;;;;;24.70;17.70;;;;;;;6.19;89.74;99784.02;106335;1254;62122;-73
2024/03/17 08:44:25;;;;;;;24.90;17.60;;;;;;;6.22;89.37;99779.13;105800;1251;61230;-73
2024/03/17 08:46:52;;;;;;;26.90;18.40;;;;;;;6.24;89.46;99776.36;106299;1256;73851;-73
2024/03/17 08:49:19;;;;;;;23.90;17.00;;;;;;;6.21;88.95;99783.96;106158;1255;69082;-75
2024/03/17 08:51:46;;;;;;;25.00;17.40;;;;;;;6.19;88.76;99781.35;106212;1254;72743;-75
2024/03/17 08:54:13;;;;;;;23.90;16.60;;;;;;;6.18;88.74;99782.52;106177;1252;61755;-74
2024/03/17 08:56:40;;;;;;;23.90;16.40;;;;;;;6.14;88.62;99782.34;106257;1256;61398;-73
2024/03/17 08:59:07;;;;;;;23.70;16.70;;;;;;;6.11;89.14;99774.13;106319;1251;74748;-74
2024/03/17 09:01:34;;;;;;;23.30;17.50;;;;;;;6.14;89.21;99767.44;106175;1251;70335;-74
2024/03/17 09:04:04;;;;;;;24.90;17.80;;;;;;;6.17;89.01;99763.73;106231;1254;71370;-74
2024/03/17 09:06:55;;;;;;;26.70;18.10;;;;;;;6.21;89.10;99770.83;106238;1251;61498;-75
2024/03/17 09:09:22;;;;;;;25.40;18.00;;;;;;;6.21;88.95;99760.45;106195;1254;61231;-75
2024/03/17 09:11:51;;;;;;;24.20;17.40;;;;;;;6.23;88.77;99770.10;106079;1252;73959;-74
2024/03/17 09:14:18;;;;;;;22.20;16.90;;;;;;;6.27;88.59;99752.94;106341;1251;70711;-73
2024/03/17 09:16:44;;;;;;;24.50;17.40;;;;;;;6.31;88.16;99747.73;105911;1254;72859;-74
2024/03/17 09:19:12;;;;;;;26.50;18.00;;;;;;;6.34;87.92;99740.77;106223;1254;61302;-74
2024/03/17 09:21:39;;;;;;;24.20;18.40;;;;;;;6.35;88.20;99733.11;106357;1254;61240;-74
2024/03/17 09:24:11;;;;;;;27.60;18.40;;;;;;;6.47;88.35;99728.52;106543;1256;73670;-75
2024/03/17 09:26:40;;;;;;;25.00;17.70;;;;;;;6.67;87.62;99728.89;106464;1257;69412;-76
2024/03/17 09:29:07;;;;;;;26.30;19.30;;;;;;;6.80;86.45;99717.70;106235;1253;72722;-75
2024/03/17 09:31:35;;;;;;;26.80;18.20;;;;;;;6.89;86.07;99720.38;106311;1253;62071;-74
2024/03/17 09:34:02;;;;;;;22.10;17.00;;;;;;;7.04;85.30;99721.89;106476;1251;61293;-74
2024/03/17 09:36:31;;;;;;;24.10;18.20;;;;;;;7.17;84.38;99721.92;106453;1254;74964;-75
2024/03/17 09:38:58;;;;;;;25.90;18.80;;;;;;;7.24;83.41;99732.32;106228;1254;70336;-75
2024/03/17 09:41:26;;;;;;;27.90;18.10;;;;;;;7.27;83.67;99722.88;106337;1257;73127;-73
2024/03/17 09:43:53;;;;;;;25.80;18.20;;;;;;;7.35;83.38;99739.58;106382;1254;62034;-74
2024/03/17 09:46:20;;;;;;;27.20;19.30;;;;;;;7.45;82.03;99744.47;106571;1251;61635;-75
2024/03/17 09:48:48;;;;;;;23.40;18.20;;;;;;;7.46;81.79;99745.95;107132;1254;73496;-74
2024/03/17 09:51:20;;;;;;;28.30;20.00;;;;;;;7.40;81.68;99744.09;106522;1257;71295;-76
2024/03/17 09:53:47;;;;;;;29.40;20.90;;;;;;;7.35;82.29;99730.26;106740;1251;71684;-73
2024/03/17 09:56:16;;;;;;;26.80;19.80;;;;;;;7.43;82.43;99730.74;106511;1251;61440;-74
2024/03/17 09:58:43;;;;;;;30.80;22.00;;;;;;;7.52;81.97;99730.05;106436;1256;61139;-75
2024/03/17 10:01:09;;;;;;;31.40;22.30;;;;;;;7.51;81.84;99725.55;106804;1251;74743;-74
2024/03/17 10:03:40;;;;;;;34.90;22.60;;;;;;;7.48;82.16;99726.31;106613;1251;69961;-77
2024/03/17 10:06:07;;;;;;;30.50;20.90;;;;;;;7.52;82.21;99722.65;106325;1254;72775;-74
2024/03/17 10:08:34;;;;;;;31.70;21.70;;;;;;;7.62;82.23;99721.50;106467;1255;61327;-76
2024/03/17 10:11:01;;;;;;;29.60;21.00;;;;;;;7.62;81.53;99733.46;106619;1254;61125;-74
2024/03/17 10:13:28;;;;;;;31.70;20.90;;;;;;;7.54;81.59;99738.00;106750;1251;74746;-74
2024/03/17 10:15:55;;;;;;;26.30;17.50;;;;;;;7.49;81.81;99732.10;106257;1254;70118;-73
2024/03/17 10:18:23;;;;;;;28.40;20.20;;;;;;;7.52;82.02;99726.90;106709;1254;75710;-73
2024/03/17 10:20:56;;;;;;;24.50;19.00;;;;;;;7.46;82.04;99724.83;106332;1256;61323;-76
2024/03/17 10:23:23;;;;;;;25.80;19.30;;;;;;;7.38;82.42;99718.34;106146;1257;61106;-75
2024/03/17 10:25:50;;;;;;;24.10;18.00;;;;;;;7.45;82.51;99726.88;105873;1254;74965;-75
2024/03/17 10:28:18;;;;;;;25.90;20.40;;;;;;;7.51;82.51;99721.13;106293;1254;69167;-75
2024/03/17 10:30:59;;;;;;;25.80;18.10;;;;;;;7.47;82.31;99713.19;106303;1254;72621;-77
2024/03/17 10:33:26;;;;;;;27.10;19.80;;;;;;;7.46;82.49;99717.95;106335;1251;61199;-72
2024/03/17 10:36:00;;;;;;;25.60;19.00;;;;;;;7.49;82.45;99708.48;106386;1256;61213;-74
2024/03/17 10:38:28;;;;;;;27.60;20.20;;;;;;;7.55;82.48;99714.45;106411;1251;74144;-74
2024/03/17 10:40:55;;;;;;;23.40;18.60;;;;;;;7.51;82.52;99716.73;106297;1254;70261;-76
2024/03/17 10:43:25;;;;;;;28.10;18.00;;;;;;;7.51;82.45;99706.54;106054;1259;71354;-74
2024/03/17 10:45:54;;;;;;;24.60;18.80;;;;;;;7.55;82.44;99703.09;106318;1253;61390;-76
2024/03/17 10:48:22;;;;;;;25.40;19.00;;;;;;;7.63;82.58;99705.13;106487;1252;61141;-79
2024/03/17 10:50:49;;;;;;;26.00;19.10;;;;;;;7.67;82.30;99705.98;106833;1251;75761;-78
2024/03/17 10:53:25;;;;;;;25.30;18.50;;;;;;;7.68;82.06;99701.16;106546;1254;70302;-77
2024/03/17 10:56:08;;;;;;;25.90;19.60;;;;;;;7.73;81.39;99715.00;106693;1251;71646;-72
2024/03/17 10:58:41;;;;;;;27.20;20.60;;;;;;;7.68;81.32;99704.15;106583;1254;61243;-75
2024/03/17 11:01:08;;;;;;;24.60;18.40;;;;;;;7.58;82.08;99711.12;105981;1259;260423;-75
2024/03/17 11:06:13;;;;;;;28.50;21.20;;;;;;;7.57;82.24;99703.61;103214;1291;600187;-77
2024/03/17 11:08:42;;;;;;;26.60;19.70;;;;;;;7.56;82.24;99693.92;105778;1266;62467;-79
2024/03/17 11:11:10;;;;;;;25.70;20.00;;;;;;;7.62;82.13;99693.11;106984;1266;60968;-76
2024/03/17 11:13:39;;;;;;;23.00;18.30;;;;;;;7.74;81.51;99686.45;107054;1266;71437;-78
2024/03/17 11:16:25;;;;;;;24.60;19.50;;;;;;;7.79;81.24;99688.98;105867;1264;72766;-77
2024/03/17 11:18:52;;;;;;;25.50;18.60;;;;;;;7.82;81.08;99678.26;105819;1261;207829;-78
2024/03/17 11:21:21;;;;;;;29.10;21.30;;;;;;;7.91;81.03;99682.14;106051;1258;63724;-76
2024/03/17 11:24:02;;;;;;;29.60;21.70;;;;;;;7.97;80.83;99677.16;106364;1264;59618;-75